sensor_id;sensor_type;location;lat;lon;timestamp;P1;durP1;ratioP1;P2;durP2;ratioP2
63534;SDS011;55128;50.230;18.944;2023-07-29T00:04:59;4.90;;;3.67;;
63534;SDS011;55128;50.230;18.944;2023-07-29T00:10:00;4.87;;;4.37;;
63534;SDS011;55128;50.230;18.944;2023-07-29T00:15:00;6.53;;;4.73;;
63534;SDS011;55128;50.230;18.944;2023-07-29T00:20:00;6.35;;;4.80;;
63534;SDS011;55128;50.230;18.944;2023-07-29T00:25:01;5.07;;;4.07;;
63534;SDS011;55128;50.230;18.944;2023-07-29T00:30:01;5.47;;;3.92;;
63534;SDS011;55128;50.230;18.944;2023-07-29T00:35:01;7.27;;;4.83;;
63534;SDS011;55128;50.230;18.944;2023-07-29T00:40:02;6.18;;;4.50;;
63534;SDS011;55128;50.230;18.944;2023-07-29T00:45:02;4.88;;;4.30;;
63534;SDS011;55128;50.230;18.944;2023-07-29T00:50:06;6.57;;;4.60;;
63534;SDS011;55128;50.230;18.944;2023-07-29T00:55:07;5.78;;;5.18;;
63534;SDS011;55128;50.230;18.944;2023-07-29T01:00:08;5.55;;;4.97;;
63534;SDS011;55128;50.230;18.944;2023-07-29T01:05:09;5.22;;;4.53;;
63534;SDS011;55128;50.230;18.944;2023-07-29T01:20:42;5.38;;;4.22;;
63534;SDS011;55128;50.230;18.944;2023-07-29T01:25:44;6.78;;;5.13;;
63534;SDS011;55128;50.230;18.944;2023-07-29T01:30:44;7.35;;;4.85;;
63534;SDS011;55128;50.230;18.944;2023-07-29T01:35:50;6.88;;;4.90;;
63534;SDS011;55128;50.230;18.944;2023-07-29T01:40:57;10.63;;;5.15;;
63534;SDS011;55128;50.230;18.944;2023-07-29T01:46:01;6.07;;;4.68;;
63534;SDS011;55128;50.230;18.944;2023-07-29T01:51:02;5.50;;;4.72;;
63534;SDS011;55128;50.230;18.944;2023-07-29T01:56:03;5.43;;;4.82;;
63534;SDS011;55128;50.230;18.944;2023-07-29T02:01:03;5.18;;;4.60;;
63534;SDS011;55128;50.230;18.944;2023-07-29T02:06:03;5.53;;;4.87;;
63534;SDS011;55128;50.230;18.944;2023-07-29T02:11:04;6.70;;;4.90;;
63534;SDS011;55128;50.230;18.944;2023-07-29T02:16:04;7.43;;;4.80;;
63534;SDS011;55128;50.230;18.944;2023-07-29T02:21:04;6.87;;;3.93;;
63534;SDS011;55128;50.230;18.944;2023-07-29T02:26:05;6.40;;;4.73;;
63534;SDS011;55128;50.230;18.944;2023-07-29T02:31:16;5.15;;;4.65;;
63534;SDS011;55128;50.230;18.944;2023-07-29T02:36:23;6.38;;;4.45;;
63534;SDS011;55128;50.230;18.944;2023-07-29T02:41:23;6.30;;;4.35;;
63534;SDS011;55128;50.230;18.944;2023-07-29T02:46:24;5.57;;;4.27;;
63534;SDS011;55128;50.230;18.944;2023-07-29T02:51:24;5.87;;;4.60;;
63534;SDS011;55128;50.230;18.944;2023-07-29T02:56:25;5.95;;;4.57;;
63534;SDS011;55128;50.230;18.944;2023-07-29T03:01:25;6.35;;;4.40;;
63534;SDS011;55128;50.230;18.944;2023-07-29T03:06:26;6.03;;;4.55;;
63534;SDS011;55128;50.230;18.944;2023-07-29T03:11:26;7.67;;;4.60;;
63534;SDS011;55128;50.230;18.944;2023-07-29T03:16:26;5.32;;;4.40;;
63534;SDS011;55128;50.230;18.944;2023-07-29T03:21:26;6.53;;;4.38;;
63534;SDS011;55128;50.230;18.944;2023-07-29T03:26:27;4.50;;;4.10;;
63534;SDS011;55128;50.230;18.944;2023-07-29T03:31:27;5.25;;;3.95;;
63534;SDS011;55128;50.230;18.944;2023-07-29T03:36:27;5.60;;;4.37;;
63534;SDS011;55128;50.230;18.944;2023-07-29T03:41:28;6.73;;;4.30;;
63534;SDS011;55128;50.230;18.944;2023-07-29T03:46:28;6.10;;;4.93;;
63534;SDS011;55128;50.230;18.944;2023-07-29T03:51:28;5.83;;;5.23;;
63534;SDS011;55128;50.230;18.944;2023-07-29T03:56:29;6.30;;;5.55;;
63534;SDS011;55128;50.230;18.944;2023-07-29T04:01:29;7.80;;;5.53;;
63534;SDS011;55128;50.230;18.944;2023-07-29T04:06:29;6.78;;;5.60;;
63534;SDS011;55128;50.230;18.944;2023-07-29T04:11:30;7.03;;;5.85;;
63534;SDS011;55128;50.230;18.944;2023-07-29T04:16:30;6.57;;;5.85;;
63534;SDS011;55128;50.230;18.944;2023-07-29T04:21:30;7.20;;;6.47;;
63534;SDS011;55128;50.230;18.944;2023-07-29T04:26:31;7.67;;;6.20;;
63534;SDS011;55128;50.230;18.944;2023-07-29T04:31:31;8.57;;;6.93;;
63534;SDS011;55128;50.230;18.944;2023-07-29T04:36:31;8.77;;;6.47;;
63534;SDS011;55128;50.230;18.944;2023-07-29T04:41:32;8.00;;;6.70;;
63534;SDS011;55128;50.230;18.944;2023-07-29T04:46:32;8.10;;;6.97;;
63534;SDS011;55128;50.230;18.944;2023-07-29T04:51:33;9.52;;;7.75;;
63534;SDS011;55128;50.230;18.944;2023-07-29T04:56:33;7.93;;;7.13;;
63534;SDS011;55128;50.230;18.944;2023-07-29T05:01:34;7.00;;;6.30;;
63534;SDS011;55128;50.230;18.944;2023-07-29T05:06:34;7.88;;;5.43;;
63534;SDS011;55128;50.230;18.944;2023-07-29T05:11:34;6.17;;;5.57;;
63534;SDS011;55128;50.230;18.944;2023-07-29T05:16:35;5.78;;;4.20;;
63534;SDS011;55128;50.230;18.944;2023-07-29T05:21:35;3.85;;;3.45;;
63534;SDS011;55128;50.230;18.944;2023-07-29T05:26:36;4.75;;;3.72;;
63534;SDS011;55128;50.230;18.944;2023-07-29T05:31:37;4.13;;;3.33;;
63534;SDS011;55128;50.230;18.944;2023-07-29T05:36:37;3.92;;;2.75;;
63534;SDS011;55128;50.230;18.944;2023-07-29T05:41:37;5.35;;;4.85;;
63534;SDS011;55128;50.230;18.944;2023-07-29T05:46:37;4.05;;;3.17;;
63534;SDS011;55128;50.230;18.944;2023-07-29T05:51:38;3.53;;;2.92;;
63534;SDS011;55128;50.230;18.944;2023-07-29T05:56:38;3.13;;;2.58;;
63534;SDS011;55128;50.230;18.944;2023-07-29T06:01:39;3.03;;;2.57;;
63534;SDS011;55128;50.230;18.944;2023-07-29T06:06:39;4.13;;;2.40;;
63534;SDS011;55128;50.230;18.944;2023-07-29T06:11:39;2.57;;;2.37;;
63534;SDS011;55128;50.230;18.944;2023-07-29T06:16:40;2.42;;;2.20;;
63534;SDS011;55128;50.230;18.944;2023-07-29T06:21:40;3.87;;;2.33;;
63534;SDS011;55128;50.230;18.944;2023-07-29T06:26:40;4.93;;;2.40;;
63534;SDS011;55128;50.230;18.944;2023-07-29T06:31:41;3.38;;;2.30;;
63534;SDS011;55128;50.230;18.944;2023-07-29T06:36:41;3.30;;;2.10;;
63534;SDS011;55128;50.230;18.944;2023-07-29T06:41:41;3.25;;;2.00;;
63534;SDS011;55128;50.230;18.944;2023-07-29T06:46:42;2.42;;;2.20;;
63534;SDS011;55128;50.230;18.944;2023-07-29T06:51:42;2.77;;;2.30;;
63534;SDS011;55128;50.230;18.944;2023-07-29T06:56:42;2.40;;;2.03;;
63534;SDS011;55128;50.230;18.944;2023-07-29T07:01:43;4.35;;;2.10;;
63534;SDS011;55128;50.230;18.944;2023-07-29T07:06:43;4.30;;;2.60;;
63534;SDS011;55128;50.230;18.944;2023-07-29T07:11:44;2.35;;;2.00;;
63534;SDS011;55128;50.230;18.944;2023-07-29T07:16:44;4.53;;;2.50;;
63534;SDS011;55128;50.230;18.944;2023-07-29T07:21:44;3.10;;;2.40;;
63534;SDS011;55128;50.230;18.944;2023-07-29T07:26:45;4.47;;;2.40;;
63534;SDS011;55128;50.230;18.944;2023-07-29T07:31:49;3.25;;;2.22;;
63534;SDS011;55128;50.230;18.944;2023-07-29T07:36:52;2.70;;;2.15;;
63534;SDS011;55128;50.230;18.944;2023-07-29T07:41:52;3.87;;;2.50;;
63534;SDS011;55128;50.230;18.944;2023-07-29T07:46:53;4.10;;;2.55;;
63534;SDS011;55128;50.230;18.944;2023-07-29T07:51:56;3.35;;;2.20;;
63534;SDS011;55128;50.230;18.944;2023-07-29T07:56:56;1.70;;;1.30;;
63534;SDS011;55128;50.230;18.944;2023-07-29T08:01:56;2.88;;;1.58;;
63534;SDS011;55128;50.230;18.944;2023-07-29T08:06:57;2.60;;;1.70;;
63534;SDS011;55128;50.230;18.944;2023-07-29T08:11:57;2.92;;;1.75;;
63534;SDS011;55128;50.230;18.944;2023-07-29T08:16:57;3.53;;;1.60;;
63534;SDS011;55128;50.230;18.944;2023-07-29T08:21:58;2.90;;;1.60;;
63534;SDS011;55128;50.230;18.944;2023-07-29T08:26:58;2.10;;;1.47;;
63534;SDS011;55128;50.230;18.944;2023-07-29T08:36:59;2.22;;;1.50;;
63534;SDS011;55128;50.230;18.944;2023-07-29T08:42:03;4.00;;;1.20;;
63534;SDS011;55128;50.230;18.944;2023-07-29T08:47:07;5.25;;;1.33;;
63534;SDS011;55128;50.230;18.944;2023-07-29T08:52:07;2.17;;;1.07;;
63534;SDS011;55128;50.230;18.944;2023-07-29T08:57:11;2.30;;;1.30;;
63534;SDS011;55128;50.230;18.944;2023-07-29T09:02:13;2.85;;;1.50;;
63534;SDS011;55128;50.230;18.944;2023-07-29T09:07:13;2.07;;;1.40;;
63534;SDS011;55128;50.230;18.944;2023-07-29T09:12:14;3.53;;;1.63;;
63534;SDS011;55128;50.230;18.944;2023-07-29T09:17:14;2.00;;;1.60;;
63534;SDS011;55128;50.230;18.944;2023-07-29T09:22:18;2.47;;;1.50;;
63534;SDS011;55128;50.230;18.944;2023-07-29T09:27:26;5.68;;;2.10;;
63534;SDS011;55128;50.230;18.944;2023-07-29T09:32:27;2.92;;;1.80;;
63534;SDS011;55128;50.230;18.944;2023-07-29T09:37:27;2.75;;;1.40;;
63534;SDS011;55128;50.230;18.944;2023-07-29T09:42:28;2.20;;;1.43;;
63534;SDS011;55128;50.230;18.944;2023-07-29T09:47:28;1.45;;;1.30;;
63534;SDS011;55128;50.230;18.944;2023-07-29T09:52:29;2.42;;;1.35;;
63534;SDS011;55128;50.230;18.944;2023-07-29T09:57:30;4.27;;;1.90;;
63534;SDS011;55128;50.230;18.944;2023-07-29T10:02:30;3.00;;;1.67;;
63534;SDS011;55128;50.230;18.944;2023-07-29T10:07:31;2.03;;;1.67;;
63534;SDS011;55128;50.230;18.944;2023-07-29T10:12:34;2.92;;;1.88;;
63534;SDS011;55128;50.230;18.944;2023-07-29T10:17:35;3.85;;;2.90;;
63534;SDS011;55128;50.230;18.944;2023-07-29T10:22:40;4.75;;;2.55;;
63534;SDS011;55128;50.230;18.944;2023-07-29T10:28:15;6.95;;;3.08;;
63534;SDS011;55128;50.230;18.944;2023-07-29T10:33:10;5.35;;;3.08;;
63534;SDS011;55128;50.230;18.944;2023-07-29T10:38:11;5.17;;;3.27;;
63534;SDS011;55128;50.230;18.944;2023-07-29T10:43:12;4.45;;;2.80;;
63534;SDS011;55128;50.230;18.944;2023-07-29T10:53:33;5.25;;;2.50;;
63534;SDS011;55128;50.230;18.944;2023-07-29T10:58:33;3.25;;;2.25;;
63534;SDS011;55128;50.230;18.944;2023-07-29T11:03:34;2.92;;;1.98;;
63534;SDS011;55128;50.230;18.944;2023-07-29T11:08:34;2.67;;;1.60;;
63534;SDS011;55128;50.230;18.944;2023-07-29T11:13:36;2.10;;;1.80;;
63534;SDS011;55128;50.230;18.944;2023-07-29T11:18:37;3.35;;;1.77;;
63534;SDS011;55128;50.230;18.944;2023-07-29T11:23:38;1.60;;;1.30;;
63534;SDS011;55128;50.230;18.944;2023-07-29T11:28:38;1.80;;;1.40;;
63534;SDS011;55128;50.230;18.944;2023-07-29T11:33:40;2.43;;;1.50;;
63534;SDS011;55128;50.230;18.944;2023-07-29T11:38:40;2.55;;;1.73;;
63534;SDS011;55128;50.230;18.944;2023-07-29T11:43:40;3.07;;;1.73;;
63534;SDS011;55128;50.230;18.944;2023-07-29T11:48:41;2.63;;;1.70;;
63534;SDS011;55128;50.230;18.944;2023-07-29T11:53:44;2.70;;;1.75;;
63534;SDS011;55128;50.230;18.944;2023-07-29T11:58:44;2.53;;;1.35;;
63534;SDS011;55128;50.230;18.944;2023-07-29T12:03:45;1.50;;;1.30;;
63534;SDS011;55128;50.230;18.944;2023-07-29T12:08:46;1.85;;;1.60;;
63534;SDS011;55128;50.230;18.944;2023-07-29T12:13:47;2.55;;;1.48;;
63534;SDS011;55128;50.230;18.944;2023-07-29T12:18:47;1.90;;;1.67;;
63534;SDS011;55128;50.230;18.944;2023-07-29T12:28:51;2.00;;;1.40;;
63534;SDS011;55128;50.230;18.944;2023-07-29T12:33:55;3.10;;;1.60;;
63534;SDS011;55128;50.230;18.944;2023-07-29T12:38:58;2.22;;;1.70;;
63534;SDS011;55128;50.230;18.944;2023-07-29T12:43:59;2.53;;;1.80;;
63534;SDS011;55128;50.230;18.944;2023-07-29T12:48:59;2.43;;;1.63;;
63534;SDS011;55128;50.230;18.944;2023-07-29T12:54:00;2.30;;;1.43;;
63534;SDS011;55128;50.230;18.944;2023-07-29T12:59:00;1.52;;;1.20;;
63534;SDS011;55128;50.230;18.944;2023-07-29T13:04:01;3.13;;;1.20;;
63534;SDS011;55128;50.230;18.944;2023-07-29T13:09:02;1.30;;;0.90;;
63534;SDS011;55128;50.230;18.944;2023-07-29T13:14:03;2.42;;;1.38;;
63534;SDS011;55128;50.230;18.944;2023-07-29T13:19:03;2.80;;;1.20;;
63534;SDS011;55128;50.230;18.944;2023-07-29T13:24:04;2.13;;;1.30;;
63534;SDS011;55128;50.230;18.944;2023-07-29T13:29:04;2.20;;;1.40;;
63534;SDS011;55128;50.230;18.944;2023-07-29T13:34:04;2.43;;;1.70;;
63534;SDS011;55128;50.230;18.944;2023-07-29T13:39:05;2.40;;;1.60;;
63534;SDS011;55128;50.230;18.944;2023-07-29T13:44:05;3.63;;;1.70;;
63534;SDS011;55128;50.230;18.944;2023-07-29T13:49:06;5.32;;;1.77;;
